TimeCST,TemperatureF,Dew PointF,Humidity,Sea Level PressureIn,VisibilityMPH,Wind Direction,Wind SpeedMPH,Gust SpeedMPH,PrecipitationIn,Events,Conditions,WindDirDegrees,DateUTC
12:55 AM,16.0,11.5,82,30.19,10.0,SE,15.0,-,N/A,,Overcast,140,2012-11-24 06:55:00
1:55 AM,17.6,13.3,83,30.17,10.0,SE,13.8,-,N/A,,Overcast,140,2012-11-24 07:55:00
2:55 AM,19.2,14.9,83,30.12,10.0,SE,13.8,-,N/A,,Overcast,130,2012-11-24 08:55:00
3:55 AM,21.7,16.9,82,30.07,10.0,SSE,15.0,-,N/A,,Overcast,150,2012-11-24 09:55:00
4:55 AM,23.2,16.9,77,30.01,10.0,SSE,18.4,-,N/A,,Overcast,160,2012-11-24 10:55:00
5:55 AM,22.6,17.1,79,29.98,10.0,South,11.5,-,N/A,,Mostly Cloudy,170,2012-11-24 11:55:00
6:55 AM,24.3,18.1,77,29.94,10.0,South,13.8,-,N/A,,Mostly Cloudy,180,2012-11-24 12:55:00
7:55 AM,26.1,19.0,75,29.90,10.0,South,15.0,-,N/A,,Partly Cloudy,190,2012-11-24 13:55:00
8:55 AM,26.6,19.0,73,29.86,10.0,SSW,15.0,-,N/A,,Mostly Cloudy,200,2012-11-24 14:55:00
9:55 AM,28.8,20.8,72,29.85,10.0,SW,9.2,-,N/A,,Partly Cloudy,220,2012-11-24 15:55:00
10:34 AM,30.2,24.8,80,29.83,10.0,SW,11.5,-,N/A,Rain,Light Freezing Rain,230,2012-11-24 16:34:00
10:55 AM,30.9,26.2,83,29.83,10.0,WSW,10.4,-,0.00,,Light Freezing Drizzle,240,2012-11-24 16:55:00
11:06 AM,32.0,26.6,80,29.82,10.0,WSW,12.7,-,N/A,,Overcast,240,2012-11-24 17:06:00
11:55 AM,33.1,28.4,83,29.81,10.0,West,12.7,-,0.00,,Clear,260,2012-11-24 17:55:00
12:55 PM,36.3,31.1,81,29.79,10.0,West,16.1,-,0.01,,Clear,280,2012-11-24 18:55:00
1:55 PM,36.3,30.4,79,29.80,10.0,WNW,21.9,29.9,N/A,,Partly Cloudy,300,2012-11-24 19:55:00
2:36 PM,33.8,28.4,81,29.83,10.0,NW,28.8,35.7,N/A,,Mostly Cloudy,310,2012-11-24 20:36:00
2:44 PM,32.0,28.4,87,29.83,10.0,NW,24.2,35.7,N/A,,Scattered Clouds,320,2012-11-24 20:44:00
2:51 PM,30.2,26.6,86,29.84,10.0,NW,27.6,-,N/A,,Mostly Cloudy,320,2012-11-24 20:51:00
2:55 PM,30.9,27.0,85,29.85,10.0,NW,24.2,-,N/A,,Mostly Cloudy,310,2012-11-24 20:55:00
3:55 PM,26.1,22.5,86,29.90,10.0,NW,23.0,31.1,N/A,,Overcast,310,2012-11-24 21:55:00
4:55 PM,23.2,19.6,86,29.93,10.0,NW,19.6,29.9,N/A,,Overcast,320,2012-11-24 22:55:00
5:26 PM,23.0,19.4,86,29.95,10.0,NW,26.5,33.4,N/A,,Overcast,310,2012-11-24 23:26:00
5:53 PM,23.0,19.4,86,29.96,10.0,NW,19.6,-,N/A,,Overcast,320,2012-11-24 23:53:00
5:55 PM,23.0,19.6,87,29.96,10.0,NW,18.4,-,N/A,,Overcast,320,2012-11-24 23:55:00
6:41 PM,23.0,19.4,86,29.97,10.0,NW,21.9,-,N/A,,Overcast,320,2012-11-25 00:41:00
6:55 PM,22.5,19.2,87,29.98,10.0,NW,18.4,29.9,N/A,,Overcast,320,2012-11-25 00:55:00
7:42 PM,21.2,17.6,86,29.99,10.0,NW,21.9,-,N/A,,Overcast,310,2012-11-25 01:42:00
7:55 PM,21.7,18.3,87,29.99,10.0,NW,19.6,-,N/A,,Overcast,320,2012-11-25 01:55:00
8:55 PM,21.7,18.5,87,30.01,10.0,NW,19.6,-,N/A,,Overcast,320,2012-11-25 02:55:00
9:34 PM,23.0,19.4,86,30.02,10.0,NW,19.6,26.5,N/A,,Overcast,310,2012-11-25 03:34:00
9:55 PM,22.6,19.6,88,30.02,10.0,WNW,15.0,-,N/A,,Overcast,300,2012-11-25 03:55:00
10:55 PM,24.3,21.2,88,30.00,10.0,WNW,13.8,-,N/A,,Overcast,300,2012-11-25 04:55:00
11:05 PM,24.8,21.2,86,29.99,10.0,WNW,15.0,-,N/A,,Overcast,300,2012-11-25 05:05:00
11:55 PM,25.3,22.1,87,30.00,10.0,NW,16.1,-,N/A,,Overcast,310,2012-11-25 05:55:00